sensor_id;sensor_type;location;lat;lon;timestamp;P1;durP1;ratioP1;P2;durP2;ratioP2
4428;SDS011;2227;47.810;8.810;2023-11-19T00:00:57;866.67;;;591.78;;
4428;SDS011;2227;47.810;8.810;2023-11-19T00:03:24;867.88;;;587.08;;
4428;SDS011;2227;47.810;8.810;2023-11-19T00:05:51;864.33;;;579.35;;
4428;SDS011;2227;47.810;8.810;2023-11-19T00:08:17;868.55;;;593.50;;
4428;SDS011;2227;47.810;8.810;2023-11-19T00:10:45;869.13;;;594.63;;
4428;SDS011;2227;47.810;8.810;2023-11-19T00:13:12;862.88;;;604.30;;
4428;SDS011;2227;47.810;8.810;2023-11-19T00:15:39;861.97;;;600.05;;
4428;SDS011;2227;47.810;8.810;2023-11-19T00:18:06;862.42;;;583.03;;
4428;SDS011;2227;47.810;8.810;2023-11-19T00:20:32;865.97;;;582.83;;
4428;SDS011;2227;47.810;8.810;2023-11-19T00:22:59;861.20;;;578.05;;
4428;SDS011;2227;47.810;8.810;2023-11-19T00:27:54;862.40;;;581.00;;
4428;SDS011;2227;47.810;8.810;2023-11-19T05:30:38;864.78;;;610.47;;
4428;SDS011;2227;47.810;8.810;2023-11-19T05:33:04;863.35;;;595.47;;
4428;SDS011;2227;47.810;8.810;2023-11-19T05:37:58;863.85;;;607.72;;
4428;SDS011;2227;47.810;8.810;2023-11-19T05:40:25;864.20;;;594.90;;
4428;SDS011;2227;47.810;8.810;2023-11-19T05:42:51;862.95;;;603.47;;
4428;SDS011;2227;47.810;8.810;2023-11-19T05:45:18;863.70;;;607.90;;
4428;SDS011;2227;47.810;8.810;2023-11-19T05:47:45;866.95;;;607.50;;
4428;SDS011;2227;47.810;8.810;2023-11-19T05:50:11;865.70;;;609.42;;
4428;SDS011;2227;47.810;8.810;2023-11-19T05:52:38;864.92;;;605.42;;
4428;SDS011;2227;47.810;8.810;2023-11-19T05:55:05;866.20;;;602.97;;
4428;SDS011;2227;47.810;8.810;2023-11-19T05:57:36;864.30;;;609.25;;
4428;SDS011;2227;47.810;8.810;2023-11-19T06:02:39;866.60;;;612.60;;
4428;SDS011;2227;47.810;8.810;2023-11-19T06:05:06;862.33;;;601.22;;
4428;SDS011;2227;47.810;8.810;2023-11-19T06:07:33;868.03;;;601.63;;
4428;SDS011;2227;47.810;8.810;2023-11-19T06:10:01;864.28;;;606.17;;
4428;SDS011;2227;47.810;8.810;2023-11-19T06:12:33;868.63;;;611.40;;
4428;SDS011;2227;47.810;8.810;2023-11-19T06:15:04;866.05;;;611.70;;
4428;SDS011;2227;47.810;8.810;2023-11-19T06:17:32;865.97;;;609.00;;
4428;SDS011;2227;47.810;8.810;2023-11-19T06:19:59;868.53;;;613.28;;
4428;SDS011;2227;47.810;8.810;2023-11-19T06:22:26;869.67;;;619.60;;
4428;SDS011;2227;47.810;8.810;2023-11-19T06:24:52;872.63;;;626.10;;
4428;SDS011;2227;47.810;8.810;2023-11-19T06:27:19;871.63;;;618.83;;
4428;SDS011;2227;47.810;8.810;2023-11-19T06:29:48;873.05;;;622.33;;
4428;SDS011;2227;47.810;8.810;2023-11-19T06:32:15;874.33;;;627.20;;
4428;SDS011;2227;47.810;8.810;2023-11-19T06:34:41;873.60;;;630.15;;
4428;SDS011;2227;47.810;8.810;2023-11-19T06:37:08;871.33;;;622.92;;
4428;SDS011;2227;47.810;8.810;2023-11-19T06:39:35;871.75;;;623.85;;
4428;SDS011;2227;47.810;8.810;2023-11-19T06:42:03;872.33;;;626.00;;
4428;SDS011;2227;47.810;8.810;2023-11-19T06:44:30;874.00;;;626.70;;
4428;SDS011;2227;47.810;8.810;2023-11-19T06:46:56;874.70;;;630.13;;
4428;SDS011;2227;47.810;8.810;2023-11-19T06:49:23;875.03;;;632.03;;
4428;SDS011;2227;47.810;8.810;2023-11-19T06:51:50;873.93;;;629.37;;
4428;SDS011;2227;47.810;8.810;2023-11-19T06:54:17;873.25;;;626.03;;
4428;SDS011;2227;47.810;8.810;2023-11-19T06:56:44;873.00;;;632.47;;
4428;SDS011;2227;47.810;8.810;2023-11-19T06:59:12;875.90;;;634.83;;
4428;SDS011;2227;47.810;8.810;2023-11-19T07:01:40;874.38;;;628.35;;
4428;SDS011;2227;47.810;8.810;2023-11-19T07:04:12;876.38;;;633.42;;
4428;SDS011;2227;47.810;8.810;2023-11-19T07:06:39;876.45;;;631.80;;
4428;SDS011;2227;47.810;8.810;2023-11-19T07:09:09;875.88;;;627.85;;
4428;SDS011;2227;47.810;8.810;2023-11-19T07:11:37;875.75;;;635.15;;
4428;SDS011;2227;47.810;8.810;2023-11-19T07:14:07;877.88;;;641.28;;
4428;SDS011;2227;47.810;8.810;2023-11-19T07:16:35;875.53;;;637.40;;
4428;SDS011;2227;47.810;8.810;2023-11-19T07:19:05;878.00;;;637.28;;
4428;SDS011;2227;47.810;8.810;2023-11-19T07:21:32;874.53;;;632.47;;
4428;SDS011;2227;47.810;8.810;2023-11-19T07:23:59;875.85;;;637.03;;
4428;SDS011;2227;47.810;8.810;2023-11-19T07:26:26;878.42;;;644.13;;
4428;SDS011;2227;47.810;8.810;2023-11-19T07:28:53;877.77;;;639.43;;
4428;SDS011;2227;47.810;8.810;2023-11-19T07:31:21;876.88;;;640.40;;
4428;SDS011;2227;47.810;8.810;2023-11-19T07:33:50;877.00;;;637.67;;
4428;SDS011;2227;47.810;8.810;2023-11-19T07:36:16;876.03;;;641.25;;
4428;SDS011;2227;47.810;8.810;2023-11-19T07:41:11;879.60;;;642.40;;
4428;SDS011;2227;47.810;8.810;2023-11-19T07:43:39;880.33;;;645.35;;
4428;SDS011;2227;47.810;8.810;2023-11-19T07:46:10;878.70;;;644.42;;
4428;SDS011;2227;47.810;8.810;2023-11-19T07:48:39;879.58;;;646.97;;
4428;SDS011;2227;47.810;8.810;2023-11-19T07:51:08;880.10;;;646.50;;
4428;SDS011;2227;47.810;8.810;2023-11-19T07:53:37;881.40;;;652.28;;
4428;SDS011;2227;47.810;8.810;2023-11-19T07:56:05;882.13;;;652.65;;
4428;SDS011;2227;47.810;8.810;2023-11-19T07:58:32;881.58;;;646.42;;
4428;SDS011;2227;47.810;8.810;2023-11-19T08:00:58;884.53;;;662.60;;
4428;SDS011;2227;47.810;8.810;2023-11-19T08:03:28;885.33;;;659.67;;
4428;SDS011;2227;47.810;8.810;2023-11-19T08:05:56;884.40;;;655.83;;
4428;SDS011;2227;47.810;8.810;2023-11-19T08:08:25;885.42;;;662.00;;
4428;SDS011;2227;47.810;8.810;2023-11-19T08:10:52;885.67;;;661.25;;
4428;SDS011;2227;47.810;8.810;2023-11-19T08:13:20;883.90;;;660.07;;
4428;SDS011;2227;47.810;8.810;2023-11-19T08:15:47;884.05;;;659.38;;
4428;SDS011;2227;47.810;8.810;2023-11-19T08:18:13;883.10;;;660.53;;
4428;SDS011;2227;47.810;8.810;2023-11-19T08:20:40;881.13;;;657.20;;
4428;SDS011;2227;47.810;8.810;2023-11-19T08:23:10;883.03;;;659.10;;
4428;SDS011;2227;47.810;8.810;2023-11-19T08:25:37;883.88;;;663.22;;
4428;SDS011;2227;47.810;8.810;2023-11-19T08:28:04;885.80;;;667.88;;
4428;SDS011;2227;47.810;8.810;2023-11-19T08:30:31;885.50;;;665.50;;
4428;SDS011;2227;47.810;8.810;2023-11-19T08:32:58;885.30;;;662.05;;
4428;SDS011;2227;47.810;8.810;2023-11-19T08:35:29;886.58;;;668.55;;
4428;SDS011;2227;47.810;8.810;2023-11-19T08:37:56;886.17;;;669.63;;
4428;SDS011;2227;47.810;8.810;2023-11-19T08:40:23;883.83;;;666.70;;
4428;SDS011;2227;47.810;8.810;2023-11-19T08:42:50;885.53;;;674.92;;
4428;SDS011;2227;47.810;8.810;2023-11-19T08:45:16;884.88;;;667.88;;
4428;SDS011;2227;47.810;8.810;2023-11-19T08:47:43;886.42;;;669.47;;
4428;SDS011;2227;47.810;8.810;2023-11-19T08:50:11;885.05;;;664.95;;
4428;SDS011;2227;47.810;8.810;2023-11-19T08:55:05;884.90;;;669.88;;
4428;SDS011;2227;47.810;8.810;2023-11-19T08:57:32;881.60;;;665.77;;
4428;SDS011;2227;47.810;8.810;2023-11-19T08:59:59;882.35;;;658.85;;
4428;SDS011;2227;47.810;8.810;2023-11-19T09:02:25;883.15;;;661.40;;
4428;SDS011;2227;47.810;8.810;2023-11-19T09:04:52;882.05;;;662.95;;
4428;SDS011;2227;47.810;8.810;2023-11-19T09:07:20;884.78;;;667.60;;
4428;SDS011;2227;47.810;8.810;2023-11-19T09:09:47;883.40;;;661.70;;
4428;SDS011;2227;47.810;8.810;2023-11-19T09:12:14;885.53;;;662.40;;
4428;SDS011;2227;47.810;8.810;2023-11-19T09:14:41;882.10;;;656.47;;
4428;SDS011;2227;47.810;8.810;2023-11-19T09:17:08;881.42;;;663.78;;
4428;SDS011;2227;47.810;8.810;2023-11-19T09:19:36;883.50;;;665.80;;
4428;SDS011;2227;47.810;8.810;2023-11-19T09:22:03;883.97;;;667.38;;
4428;SDS011;2227;47.810;8.810;2023-11-19T09:24:30;879.55;;;680.17;;
4428;SDS011;2227;47.810;8.810;2023-11-19T09:26:57;880.92;;;661.78;;
4428;SDS011;2227;47.810;8.810;2023-11-19T09:29:23;880.42;;;669.33;;
4428;SDS011;2227;47.810;8.810;2023-11-19T09:31:50;881.95;;;664.47;;
4428;SDS011;2227;47.810;8.810;2023-11-19T09:36:43;879.03;;;657.58;;
4428;SDS011;2227;47.810;8.810;2023-11-19T09:39:11;882.03;;;669.33;;
4428;SDS011;2227;47.810;8.810;2023-11-19T09:41:41;883.03;;;671.13;;
4428;SDS011;2227;47.810;8.810;2023-11-19T09:44:08;883.75;;;676.28;;
4428;SDS011;2227;47.810;8.810;2023-11-19T09:46:41;883.38;;;691.08;;
4428;SDS011;2227;47.810;8.810;2023-11-19T09:49:08;883.92;;;693.97;;
4428;SDS011;2227;47.810;8.810;2023-11-19T09:51:36;884.60;;;700.27;;
4428;SDS011;2227;47.810;8.810;2023-11-19T09:54:03;885.80;;;699.43;;
4428;SDS011;2227;47.810;8.810;2023-11-19T09:56:29;886.10;;;707.13;;
4428;SDS011;2227;47.810;8.810;2023-11-19T09:58:57;884.88;;;700.55;;
4428;SDS011;2227;47.810;8.810;2023-11-19T10:01:24;883.88;;;701.95;;
4428;SDS011;2227;47.810;8.810;2023-11-19T10:03:55;882.40;;;698.58;;
4428;SDS011;2227;47.810;8.810;2023-11-19T10:06:22;883.22;;;700.05;;
4428;SDS011;2227;47.810;8.810;2023-11-19T10:08:49;884.33;;;702.75;;
4428;SDS011;2227;47.810;8.810;2023-11-19T10:11:16;887.95;;;715.67;;
4428;SDS011;2227;47.810;8.810;2023-11-19T10:13:43;886.35;;;711.30;;
4428;SDS011;2227;47.810;8.810;2023-11-19T10:16:14;888.88;;;717.85;;
4428;SDS011;2227;47.810;8.810;2023-11-19T10:18:45;886.67;;;712.00;;
4428;SDS011;2227;47.810;8.810;2023-11-19T10:21:13;884.55;;;710.05;;
4428;SDS011;2227;47.810;8.810;2023-11-19T10:23:50;882.20;;;704.57;;
4428;SDS011;2227;47.810;8.810;2023-11-19T10:26:23;883.63;;;708.42;;
4428;SDS011;2227;47.810;8.810;2023-11-19T10:28:50;883.25;;;708.40;;
4428;SDS011;2227;47.810;8.810;2023-11-19T10:31:17;883.78;;;714.80;;
4428;SDS011;2227;47.810;8.810;2023-11-19T10:33:45;881.95;;;699.45;;
4428;SDS011;2227;47.810;8.810;2023-11-19T10:36:12;882.35;;;703.40;;
4428;SDS011;2227;47.810;8.810;2023-11-19T10:38:39;881.05;;;702.80;;
4428;SDS011;2227;47.810;8.810;2023-11-19T10:41:07;880.47;;;700.70;;
4428;SDS011;2227;47.810;8.810;2023-11-19T10:43:43;880.85;;;703.13;;
4428;SDS011;2227;47.810;8.810;2023-11-19T10:46:11;882.72;;;709.78;;
4428;SDS011;2227;47.810;8.810;2023-11-19T10:48:40;880.92;;;703.28;;
4428;SDS011;2227;47.810;8.810;2023-11-19T10:51:07;883.20;;;708.95;;
4428;SDS011;2227;47.810;8.810;2023-11-19T10:53:35;884.75;;;715.40;;
4428;SDS011;2227;47.810;8.810;2023-11-19T10:56:10;882.90;;;707.28;;
4428;SDS011;2227;47.810;8.810;2023-11-19T10:58:38;882.83;;;713.08;;
4428;SDS011;2227;47.810;8.810;2023-11-19T11:01:13;880.25;;;704.58;;
4428;SDS011;2227;47.810;8.810;2023-11-19T11:03:45;880.90;;;708.58;;
4428;SDS011;2227;47.810;8.810;2023-11-19T11:06:13;882.03;;;709.58;;
4428;SDS011;2227;47.810;8.810;2023-11-19T11:08:40;881.63;;;707.17;;
4428;SDS011;2227;47.810;8.810;2023-11-19T11:11:07;883.38;;;715.58;;
4428;SDS011;2227;47.810;8.810;2023-11-19T11:13:34;881.25;;;709.58;;
4428;SDS011;2227;47.810;8.810;2023-11-19T11:16:06;881.33;;;709.35;;
4428;SDS011;2227;47.810;8.810;2023-11-19T11:18:34;892.10;;;717.95;;
4428;SDS011;2227;47.810;8.810;2023-11-19T11:21:08;882.60;;;711.27;;
4428;SDS011;2227;47.810;8.810;2023-11-19T11:38:15;881.63;;;706.15;;
4428;SDS011;2227;47.810;8.810;2023-11-19T11:41:14;884.07;;;715.97;;
4428;SDS011;2227;47.810;8.810;2023-11-19T11:49:04;883.08;;;718.58;;
4428;SDS011;2227;47.810;8.810;2023-11-19T11:57:00;883.63;;;713.75;;
4428;SDS011;2227;47.810;8.810;2023-11-19T12:00:03;883.63;;;716.70;;
4428;SDS011;2227;47.810;8.810;2023-11-19T12:02:23;885.50;;;719.05;;
4428;SDS011;2227;47.810;8.810;2023-11-19T12:04:52;881.67;;;715.17;;
4428;SDS011;2227;47.810;8.810;2023-11-19T12:07:23;885.03;;;723.42;;
4428;SDS011;2227;47.810;8.810;2023-11-19T12:10:05;884.65;;;724.75;;
4428;SDS011;2227;47.810;8.810;2023-11-19T12:12:34;883.58;;;720.22;;
4428;SDS011;2227;47.810;8.810;2023-11-19T12:15:03;883.97;;;714.08;;
4428;SDS011;2227;47.810;8.810;2023-11-19T12:17:38;886.95;;;726.30;;
4428;SDS011;2227;47.810;8.810;2023-11-19T12:20:07;884.92;;;723.08;;
4428;SDS011;2227;47.810;8.810;2023-11-19T12:22:38;884.20;;;723.10;;
4428;SDS011;2227;47.810;8.810;2023-11-19T12:25:06;887.85;;;727.28;;
4428;SDS011;2227;47.810;8.810;2023-11-19T12:27:41;885.65;;;717.35;;
4428;SDS011;2227;47.810;8.810;2023-11-19T12:30:10;886.50;;;720.30;;
4428;SDS011;2227;47.810;8.810;2023-11-19T12:32:41;885.30;;;725.70;;
4428;SDS011;2227;47.810;8.810;2023-11-19T12:35:08;885.10;;;724.35;;
4428;SDS011;2227;47.810;8.810;2023-11-19T12:37:42;886.13;;;728.63;;
4428;SDS011;2227;47.810;8.810;2023-11-19T12:40:11;885.10;;;725.40;;
4428;SDS011;2227;47.810;8.810;2023-11-19T12:42:44;882.38;;;738.90;;
4428;SDS011;2227;47.810;8.810;2023-11-19T12:45:14;885.28;;;751.53;;
4428;SDS011;2227;47.810;8.810;2023-11-19T12:47:45;883.20;;;739.67;;
4428;SDS011;2227;47.810;8.810;2023-11-19T12:50:16;886.00;;;759.70;;
4428;SDS011;2227;47.810;8.810;2023-11-19T12:52:57;883.50;;;745.30;;
4428;SDS011;2227;47.810;8.810;2023-11-19T12:55:25;882.70;;;744.83;;
4428;SDS011;2227;47.810;8.810;2023-11-19T12:57:56;885.97;;;757.58;;
4428;SDS011;2227;47.810;8.810;2023-11-19T13:00:25;883.20;;;747.95;;
4428;SDS011;2227;47.810;8.810;2023-11-19T13:02:53;886.25;;;760.95;;
4428;SDS011;2227;47.810;8.810;2023-11-19T13:05:29;884.22;;;750.10;;
4428;SDS011;2227;47.810;8.810;2023-11-19T13:08:02;882.30;;;745.85;;
4428;SDS011;2227;47.810;8.810;2023-11-19T13:10:31;881.88;;;745.05;;
4428;SDS011;2227;47.810;8.810;2023-11-19T13:13:17;879.55;;;741.78;;
4428;SDS011;2227;47.810;8.810;2023-11-19T13:15:43;883.80;;;754.55;;
4428;SDS011;2227;47.810;8.810;2023-11-19T13:18:15;880.22;;;742.42;;
4428;SDS011;2227;47.810;8.810;2023-11-19T13:20:43;882.10;;;748.58;;
4428;SDS011;2227;47.810;8.810;2023-11-19T13:23:10;881.23;;;746.47;;
4428;SDS011;2227;47.810;8.810;2023-11-19T13:25:36;881.10;;;748.50;;
4428;SDS011;2227;47.810;8.810;2023-11-19T13:28:03;882.38;;;748.63;;
4428;SDS011;2227;47.810;8.810;2023-11-19T13:30:30;880.97;;;745.67;;
4428;SDS011;2227;47.810;8.810;2023-11-19T13:32:57;879.77;;;748.90;;
4428;SDS011;2227;47.810;8.810;2023-11-19T13:37:53;881.77;;;747.20;;
4428;SDS011;2227;47.810;8.810;2023-11-19T13:40:20;881.40;;;745.90;;
4428;SDS011;2227;47.810;8.810;2023-11-19T13:42:48;882.80;;;752.35;;
4428;SDS011;2227;47.810;8.810;2023-11-19T13:45:15;880.60;;;746.90;;
4428;SDS011;2227;47.810;8.810;2023-11-19T13:47:44;881.17;;;751.07;;
4428;SDS011;2227;47.810;8.810;2023-11-19T13:50:13;883.88;;;731.67;;
4428;SDS011;2227;47.810;8.810;2023-11-19T13:52:41;882.72;;;724.60;;
4428;SDS011;2227;47.810;8.810;2023-11-19T13:55:11;879.23;;;745.03;;
4428;SDS011;2227;47.810;8.810;2023-11-19T13:57:38;880.85;;;750.58;;
4428;SDS011;2227;47.810;8.810;2023-11-19T14:00:07;881.30;;;751.08;;
4428;SDS011;2227;47.810;8.810;2023-11-19T14:02:39;883.00;;;749.03;;
4428;SDS011;2227;47.810;8.810;2023-11-19T14:05:07;884.80;;;756.42;;
4428;SDS011;2227;47.810;8.810;2023-11-19T14:07:37;885.97;;;757.75;;
4428;SDS011;2227;47.810;8.810;2023-11-19T14:10:05;888.38;;;763.85;;
4428;SDS011;2227;47.810;8.810;2023-11-19T14:12:32;886.60;;;759.55;;
4428;SDS011;2227;47.810;8.810;2023-11-19T14:14:59;884.78;;;754.65;;
4428;SDS011;2227;47.810;8.810;2023-11-19T14:17:26;888.15;;;766.78;;
4428;SDS011;2227;47.810;8.810;2023-11-19T14:19:53;887.95;;;758.47;;
4428;SDS011;2227;47.810;8.810;2023-11-19T14:22:20;888.22;;;765.72;;
4428;SDS011;2227;47.810;8.810;2023-11-19T14:24:47;887.67;;;764.47;;
4428;SDS011;2227;47.810;8.810;2023-11-19T14:27:14;885.33;;;760.72;;
4428;SDS011;2227;47.810;8.810;2023-11-19T14:29:40;885.28;;;761.47;;
4428;SDS011;2227;47.810;8.810;2023-11-19T14:32:07;884.15;;;760.60;;
4428;SDS011;2227;47.810;8.810;2023-11-19T14:34:34;884.03;;;758.30;;
4428;SDS011;2227;47.810;8.810;2023-11-19T14:37:01;884.42;;;753.78;;
4428;SDS011;2227;47.810;8.810;2023-11-19T14:39:27;886.35;;;761.00;;
4428;SDS011;2227;47.810;8.810;2023-11-19T14:41:57;882.92;;;753.38;;
4428;SDS011;2227;47.810;8.810;2023-11-19T14:44:27;885.07;;;759.33;;
4428;SDS011;2227;47.810;8.810;2023-11-19T14:46:55;883.65;;;751.83;;
4428;SDS011;2227;47.810;8.810;2023-11-19T14:49:22;882.95;;;742.80;;
4428;SDS011;2227;47.810;8.810;2023-11-19T14:51:50;887.03;;;724.65;;
4428;SDS011;2227;47.810;8.810;2023-11-19T14:54:17;887.60;;;723.40;;
4428;SDS011;2227;47.810;8.810;2023-11-19T14:56:44;883.00;;;736.80;;
4428;SDS011;2227;47.810;8.810;2023-11-19T14:59:10;882.92;;;736.75;;
4428;SDS011;2227;47.810;8.810;2023-11-19T15:01:37;884.75;;;721.30;;
4428;SDS011;2227;47.810;8.810;2023-11-19T15:04:04;885.72;;;724.85;;
4428;SDS011;2227;47.810;8.810;2023-11-19T15:06:32;886.20;;;732.70;;
4428;SDS011;2227;47.810;8.810;2023-11-19T15:09:00;883.70;;;744.60;;
4428;SDS011;2227;47.810;8.810;2023-11-19T15:11:28;886.00;;;732.70;;
4428;SDS011;2227;47.810;8.810;2023-11-19T15:13:55;885.33;;;729.70;;
4428;SDS011;2227;47.810;8.810;2023-11-19T15:16:22;886.08;;;730.35;;
4428;SDS011;2227;47.810;8.810;2023-11-19T15:18:57;885.30;;;720.17;;
4428;SDS011;2227;47.810;8.810;2023-11-19T15:21:29;883.47;;;716.95;;
4428;SDS011;2227;47.810;8.810;2023-11-19T15:23:56;884.33;;;720.10;;
4428;SDS011;2227;47.810;8.810;2023-11-19T15:26:23;886.25;;;726.78;;
4428;SDS011;2227;47.810;8.810;2023-11-19T15:28:50;886.63;;;718.08;;
4428;SDS011;2227;47.810;8.810;2023-11-19T15:31:16;886.63;;;724.50;;
4428;SDS011;2227;47.810;8.810;2023-11-19T15:33:43;884.50;;;728.15;;
4428;SDS011;2227;47.810;8.810;2023-11-19T15:36:10;883.50;;;722.43;;
4428;SDS011;2227;47.810;8.810;2023-11-19T15:38:37;883.50;;;729.65;;
4428;SDS011;2227;47.810;8.810;2023-11-19T15:41:06;882.10;;;714.90;;
4428;SDS011;2227;47.810;8.810;2023-11-19T15:43:35;883.43;;;718.77;;
4428;SDS011;2227;47.810;8.810;2023-11-19T15:46:05;885.90;;;729.47;;
4428;SDS011;2227;47.810;8.810;2023-11-19T15:48:33;884.38;;;721.17;;
4428;SDS011;2227;47.810;8.810;2023-11-19T15:51:00;882.60;;;715.08;;
4428;SDS011;2227;47.810;8.810;2023-11-19T15:53:29;885.13;;;725.67;;
4428;SDS011;2227;47.810;8.810;2023-11-19T15:55:59;883.70;;;717.13;;
4428;SDS011;2227;47.810;8.810;2023-11-19T15:58:27;884.20;;;722.05;;
4428;SDS011;2227;47.810;8.810;2023-11-19T16:00:54;884.20;;;720.78;;
4428;SDS011;2227;47.810;8.810;2023-11-19T16:03:21;885.45;;;725.80;;
4428;SDS011;2227;47.810;8.810;2023-11-19T16:05:49;882.95;;;726.58;;
4428;SDS011;2227;47.810;8.810;2023-11-19T16:08:32;883.30;;;723.80;;
4428;SDS011;2227;47.810;8.810;2023-11-19T16:10:59;885.10;;;720.95;;
4428;SDS011;2227;47.810;8.810;2023-11-19T16:13:25;884.10;;;719.33;;
4428;SDS011;2227;47.810;8.810;2023-11-19T16:15:52;884.40;;;719.90;;
4428;SDS011;2227;47.810;8.810;2023-11-19T16:18:19;885.93;;;718.87;;
4428;SDS011;2227;47.810;8.810;2023-11-19T16:20:46;884.27;;;708.70;;
4428;SDS011;2227;47.810;8.810;2023-11-19T16:23:13;885.05;;;710.00;;
4428;SDS011;2227;47.810;8.810;2023-11-19T16:25:42;886.47;;;709.58;;
4428;SDS011;2227;47.810;8.810;2023-11-19T16:28:09;886.25;;;712.65;;
4428;SDS011;2227;47.810;8.810;2023-11-19T16:30:35;888.88;;;720.50;;
4428;SDS011;2227;47.810;8.810;2023-11-19T16:33:02;885.80;;;707.75;;
4428;SDS011;2227;47.810;8.810;2023-11-19T16:35:30;884.23;;;706.57;;
4428;SDS011;2227;47.810;8.810;2023-11-19T16:37:57;886.15;;;710.63;;
4428;SDS011;2227;47.810;8.810;2023-11-19T16:40:24;884.80;;;714.67;;
4428;SDS011;2227;47.810;8.810;2023-11-19T16:42:51;886.78;;;721.65;;
4428;SDS011;2227;47.810;8.810;2023-11-19T16:45:17;884.55;;;709.50;;
4428;SDS011;2227;47.810;8.810;2023-11-19T16:47:44;883.63;;;713.47;;
4428;SDS011;2227;47.810;8.810;2023-11-19T16:50:11;883.65;;;711.40;;
4428;SDS011;2227;47.810;8.810;2023-11-19T16:52:38;883.28;;;708.63;;
4428;SDS011;2227;47.810;8.810;2023-11-19T16:55:05;884.58;;;714.40;;
4428;SDS011;2227;47.810;8.810;2023-11-19T16:57:38;882.90;;;705.80;;
4428;SDS011;2227;47.810;8.810;2023-11-19T17:00:06;882.85;;;704.65;;
4428;SDS011;2227;47.810;8.810;2023-11-19T17:02:33;882.75;;;705.00;;
4428;SDS011;2227;47.810;8.810;2023-11-19T17:05:17;881.00;;;704.55;;
4428;SDS011;2227;47.810;8.810;2023-11-19T17:07:43;882.10;;;701.57;;
4428;SDS011;2227;47.810;8.810;2023-11-19T17:10:10;882.60;;;707.03;;
4428;SDS011;2227;47.810;8.810;2023-11-19T17:12:38;882.60;;;705.60;;
4428;SDS011;2227;47.810;8.810;2023-11-19T17:15:05;884.70;;;717.80;;
4428;SDS011;2227;47.810;8.810;2023-11-19T17:17:35;880.78;;;703.92;;
4428;SDS011;2227;47.810;8.810;2023-11-19T17:20:03;883.05;;;706.78;;
4428;SDS011;2227;47.810;8.810;2023-11-19T17:22:35;881.95;;;706.63;;
4428;SDS011;2227;47.810;8.810;2023-11-19T17:25:03;882.25;;;709.70;;
4428;SDS011;2227;47.810;8.810;2023-11-19T17:27:32;882.38;;;709.53;;
4428;SDS011;2227;47.810;8.810;2023-11-19T17:29:59;880.60;;;702.25;;
4428;SDS011;2227;47.810;8.810;2023-11-19T17:32:27;882.42;;;706.83;;
4428;SDS011;2227;47.810;8.810;2023-11-19T17:34:54;881.30;;;706.28;;
4428;SDS011;2227;47.810;8.810;2023-11-19T17:37:21;882.77;;;710.43;;
4428;SDS011;2227;47.810;8.810;2023-11-19T17:39:47;880.83;;;704.67;;
4428;SDS011;2227;47.810;8.810;2023-11-19T17:42:15;880.03;;;700.53;;
4428;SDS011;2227;47.810;8.810;2023-11-19T17:44:41;880.80;;;702.75;;
4428;SDS011;2227;47.810;8.810;2023-11-19T17:47:08;878.67;;;695.00;;
4428;SDS011;2227;47.810;8.810;2023-11-19T17:49:36;879.17;;;697.38;;
4428;SDS011;2227;47.810;8.810;2023-11-19T17:52:06;882.85;;;686.97;;
4428;SDS011;2227;47.810;8.810;2023-11-19T17:54:33;879.83;;;698.15;;
4428;SDS011;2227;47.810;8.810;2023-11-19T17:56:59;881.17;;;706.17;;
4428;SDS011;2227;47.810;8.810;2023-11-19T17:59:27;881.47;;;707.00;;
4428;SDS011;2227;47.810;8.810;2023-11-19T18:01:53;878.05;;;691.63;;
4428;SDS011;2227;47.810;8.810;2023-11-19T18:04:26;879.78;;;701.75;;
4428;SDS011;2227;47.810;8.810;2023-11-19T18:06:53;878.65;;;696.75;;
4428;SDS011;2227;47.810;8.810;2023-11-19T18:09:21;880.08;;;701.58;;
4428;SDS011;2227;47.810;8.810;2023-11-19T18:11:47;880.40;;;702.67;;
4428;SDS011;2227;47.810;8.810;2023-11-19T18:14:16;880.13;;;705.53;;
4428;SDS011;2227;47.810;8.810;2023-11-19T18:16:43;879.15;;;701.97;;
4428;SDS011;2227;47.810;8.810;2023-11-19T18:19:10;879.70;;;706.85;;
4428;SDS011;2227;47.810;8.810;2023-11-19T18:21:37;880.28;;;704.10;;
4428;SDS011;2227;47.810;8.810;2023-11-19T18:24:06;879.83;;;703.10;;
4428;SDS011;2227;47.810;8.810;2023-11-19T18:26:33;880.88;;;703.65;;
4428;SDS011;2227;47.810;8.810;2023-11-19T18:29:03;881.72;;;708.08;;
4428;SDS011;2227;47.810;8.810;2023-11-19T18:31:30;881.38;;;706.80;;
4428;SDS011;2227;47.810;8.810;2023-11-19T18:33:59;879.92;;;693.22;;
4428;SDS011;2227;47.810;8.810;2023-11-19T18:36:26;881.20;;;696.40;;
4428;SDS011;2227;47.810;8.810;2023-11-19T18:38:54;881.10;;;697.38;;
4428;SDS011;2227;47.810;8.810;2023-11-19T18:41:20;878.60;;;695.97;;
4428;SDS011;2227;47.810;8.810;2023-11-19T18:43:47;880.72;;;694.67;;
4428;SDS011;2227;47.810;8.810;2023-11-19T18:46:14;879.88;;;704.30;;
4428;SDS011;2227;47.810;8.810;2023-11-19T18:48:41;878.65;;;701.58;;
4428;SDS011;2227;47.810;8.810;2023-11-19T18:51:07;879.20;;;702.20;;
4428;SDS011;2227;47.810;8.810;2023-11-19T18:53:40;878.22;;;700.05;;
4428;SDS011;2227;47.810;8.810;2023-11-19T18:56:10;878.22;;;697.47;;
4428;SDS011;2227;47.810;8.810;2023-11-19T18:58:37;880.33;;;694.00;;
4428;SDS011;2227;47.810;8.810;2023-11-19T19:01:04;880.30;;;679.60;;
4428;SDS011;2227;47.810;8.810;2023-11-19T19:03:30;880.60;;;692.40;;
4428;SDS011;2227;47.810;8.810;2023-11-19T19:05:58;882.70;;;691.17;;
4428;SDS011;2227;47.810;8.810;2023-11-19T19:08:24;882.13;;;685.35;;
4428;SDS011;2227;47.810;8.810;2023-11-19T19:10:51;880.40;;;680.15;;
4428;SDS011;2227;47.810;8.810;2023-11-19T19:13:18;881.40;;;683.53;;
4428;SDS011;2227;47.810;8.810;2023-11-19T19:15:45;878.15;;;685.50;;
4428;SDS011;2227;47.810;8.810;2023-11-19T19:18:12;879.67;;;695.05;;
4428;SDS011;2227;47.810;8.810;2023-11-19T19:20:39;881.08;;;688.45;;
4428;SDS011;2227;47.810;8.810;2023-11-19T19:23:05;878.90;;;709.35;;
4428;SDS011;2227;47.810;8.810;2023-11-19T19:25:32;880.97;;;705.75;;
4428;SDS011;2227;47.810;8.810;2023-11-19T19:27:59;879.00;;;686.10;;
4428;SDS011;2227;47.810;8.810;2023-11-19T19:30:28;879.28;;;712.08;;
4428;SDS011;2227;47.810;8.810;2023-11-19T19:32:55;879.78;;;710.38;;
4428;SDS011;2227;47.810;8.810;2023-11-19T19:35:22;876.95;;;698.78;;
4428;SDS011;2227;47.810;8.810;2023-11-19T19:37:54;880.50;;;706.67;;
4428;SDS011;2227;47.810;8.810;2023-11-19T19:40:26;877.03;;;698.00;;
4428;SDS011;2227;47.810;8.810;2023-11-19T19:42:53;879.60;;;704.17;;
4428;SDS011;2227;47.810;8.810;2023-11-19T19:45:21;876.55;;;688.78;;
4428;SDS011;2227;47.810;8.810;2023-11-19T19:47:48;876.78;;;699.08;;
4428;SDS011;2227;47.810;8.810;2023-11-19T19:50:16;878.73;;;681.80;;
4428;SDS011;2227;47.810;8.810;2023-11-19T19:52:43;879.92;;;688.75;;
4428;SDS011;2227;47.810;8.810;2023-11-19T19:55:10;875.42;;;693.05;;
4428;SDS011;2227;47.810;8.810;2023-11-19T19:57:38;876.08;;;693.15;;
4428;SDS011;2227;47.810;8.810;2023-11-19T20:00:05;876.53;;;688.10;;
4428;SDS011;2227;47.810;8.810;2023-11-19T20:02:40;877.40;;;677.72;;
4428;SDS011;2227;47.810;8.810;2023-11-19T20:05:08;874.63;;;692.85;;
4428;SDS011;2227;47.810;8.810;2023-11-19T20:07:42;876.03;;;697.70;;
4428;SDS011;2227;47.810;8.810;2023-11-19T20:10:10;875.28;;;697.85;;